Terminal Aerodrome Forecast
Issued by NWS

Home | Current Version | Previous Version | Text Only | Print | Product List | Glossary On
Versions: 1 2 3 4 5 6 7 8 9 10 11 12 13 14 15
903
FTUS45 KRIW 211724
TAFWRL
TAF
KWRL 211724Z 2118/2218 VRB03KT P6SM SCT002 BKN080
      TEMPO 2118/2119 BKN001
     FM211900 VRB03KT P6SM SCT100
     FM220000 VRB03KT P6SM BKN070
     FM221600 16007KT P6SM FEW070=

USA.gov is the U.S. government's official web portal to all federal, state and local government web resources and services.